Weather History for KBOW - March, 2013

Change the Weather History Date:

Wednesday, March 27, 2013

  Actual Average Record
Temperature  
Mean Temperature 48 °F -  
Max Temperature 62 °F 81 °F 91 °F (1950)
Min Temperature 35 °F 57 °F 35 °F (2013)
Degree Days  
Heating Degree Days 16    
Moisture  
Dew Point 31 °F    
Average Humidity 51    
Maximum Humidity 87    
Minimum Humidity 25    
Precipitation  
Precipitation 0.00 in - - ()
Sea Level Pressure  
Sea Level Pressure 30.27 in    
Wind  
Wind Speed 7 mph (NW)    
Max Wind Speed 13 mph    
Max Gust Speed 16 mph    
Visibility 10 miles    
Events      
Averages and records for this station are not official NWS values.
T = Trace of Precipitation, MM = Missing Value Source: NWS Daily Summary

Daily Weather History Graph

Daily Weather History Graph

Search for Another Location

Airport or City:

Trip Planner

Search our weather history database for the weather conditions in past years. The results will help you decide how hot, cold, wet, or windy it might be!

Date:

Astronomy

Mar. 27, 2013 Rise Set
Actual Time 7:22 AM EDT 7:42 PM EDT
Civil Twilight 6:59 AM EDT 8:05 PM EDT
Nautical Twilight 6:31 AM EDT 8:33 PM EDT
Astronomical Twilight 6:04 AM EDT 9:01 PM EDT
Moon 8:17 PM EDT (3/27) 7:17 AM EDT (3/27)
Length of Visible Light 13h 06m
Length of Day
12h 19m
Full, 100% of the Moon is Illuminated
Mar 27
Full
Apr 3
Last Quarter
Apr 10
New
Apr 18
First Quarter
Apr 25
Full

Hourly Weather History & Observations

Time (EDT) Temp. Windchill Dew Point Humidity Pressure Visibility Wind Dir Wind Speed Gust Speed Precip Events Conditions
12:15 AM 46.4 °F 42.9 °F 32.0 °F 57% 30.26 in 10.0 mi NW 6.9 mph - N/A   Clear
12:35 AM 44.6 °F 40.7 °F 32.0 °F 61% 30.26 in 10.0 mi NNW 6.9 mph - N/A   Clear
12:55 AM 44.6 °F 40.7 °F 32.0 °F 61% 30.26 in 10.0 mi NNW 6.9 mph - N/A   Clear
1:15 AM 44.6 °F 40.7 °F 32.0 °F 61% 30.26 in 10.0 mi NNW 6.9 mph - N/A   Clear
1:35 AM 44.6 °F 40.7 °F 32.0 °F 61% 30.26 in 10.0 mi NNW 6.9 mph - N/A   Clear
1:55 AM 44.6 °F 39.7 °F 32.0 °F 61% 30.25 in 10.0 mi NNW 9.2 mph - N/A   Clear
2:15 AM 44.6 °F 41.4 °F 32.0 °F 61% 30.26 in 10.0 mi NNW 5.8 mph - N/A   Clear
2:35 AM 44.6 °F 40.2 °F 32.0 °F 61% 30.25 in 10.0 mi NNW 8.1 mph - N/A   Clear
2:55 AM 42.8 °F 38.6 °F 32.0 °F 66% 30.24 in 10.0 mi NNW 6.9 mph - N/A   Clear
3:15 AM 42.8 °F 38.6 °F 32.0 °F 66% 30.24 in 10.0 mi NNW 6.9 mph - N/A   Clear
3:35 AM 42.8 °F 38.6 °F 30.2 °F 61% 30.24 in 10.0 mi NNW 6.9 mph - N/A   Clear
3:55 AM 42.8 °F 39.3 °F 30.2 °F 61% 30.24 in 10.0 mi NNW 5.8 mph - N/A   Clear
4:15 AM 42.8 °F 39.3 °F 32.0 °F 66% 30.24 in 10.0 mi North 5.8 mph - N/A   Clear
4:35 AM 44.6 °F 41.4 °F 32.0 °F 61% 30.24 in 10.0 mi North 5.8 mph - N/A   Clear
4:55 AM 42.8 °F 40.1 °F 32.0 °F 66% 30.25 in 10.0 mi North 4.6 mph - N/A   Clear
5:15 AM 42.8 °F - 32.0 °F 66% 30.26 in 10.0 mi Calm Calm - N/A   Clear
5:35 AM 37.4 °F - 32.0 °F 81% 30.25 in 10.0 mi Calm Calm - N/A   Clear
5:55 AM 37.4 °F - 32.0 °F 81% 30.25 in 10.0 mi Calm Calm - N/A   Clear
6:15 AM 35.6 °F - 32.0 °F 87% 30.26 in 10.0 mi Calm Calm - N/A   Clear
6:35 AM 35.6 °F - 32.0 °F 87% 30.27 in 10.0 mi Calm Calm - N/A   Clear
6:55 AM 42.8 °F 38.0 °F 32.0 °F 66% 30.28 in 10.0 mi NNE 8.1 mph - N/A   Clear
7:15 AM 42.8 °F 38.6 °F 32.0 °F 66% 30.28 in 10.0 mi NNE 6.9 mph - N/A   Clear
7:35 AM 42.8 °F 38.6 °F 32.0 °F 66% 30.29 in 10.0 mi NNE 6.9 mph - N/A   Clear
7:55 AM 42.8 °F 38.6 °F 32.0 °F 66% 30.30 in 10.0 mi NNE 6.9 mph - N/A   Clear
8:15 AM 42.8 °F 37.0 °F 32.0 °F 66% 30.30 in 9.0 mi NNE 10.4 mph - N/A   Clear
8:35 AM 44.6 °F 40.2 °F 32.0 °F 61% 30.31 in 10.0 mi NNE 8.1 mph - N/A   Clear
8:55 AM 44.6 °F 40.2 °F 32.0 °F 61% 30.32 in 10.0 mi NNE 8.1 mph - N/A   Clear
9:15 AM 44.6 °F 39.2 °F 32.0 °F 61% 30.32 in 10.0 mi North 10.4 mph - N/A   Clear
9:35 AM 44.6 °F 39.7 °F 32.0 °F 61% 30.33 in 10.0 mi North 9.2 mph - N/A   Clear
9:55 AM 46.4 °F 41.9 °F 32.0 °F 57% 30.34 in 10.0 mi North 9.2 mph - N/A   Clear
10:15 AM 48.2 °F - 30.2 °F 50% 30.34 in 10.0 mi North 9.2 mph - N/A   Clear
10:35 AM 48.2 °F - 30.2 °F 50% 30.34 in 9.0 mi NE 5.8 mph - N/A   Clear
10:55 AM 48.2 °F - 30.2 °F 50% 30.34 in 9.0 mi NNW 5.8 mph - N/A   Clear
11:15 AM 50.0 °F - 30.2 °F 47% 30.34 in 9.0 mi North 5.8 mph - N/A   Clear
11:35 AM 50.0 °F - 28.4 °F 43% 30.34 in 10.0 mi North 3.5 mph - N/A   Clear
11:55 AM 51.8 °F - 30.2 °F 44% 30.33 in 9.0 mi North 4.6 mph - N/A   Clear
12:15 PM 53.6 °F - 28.4 °F 38% 30.33 in 10.0 mi North 6.9 mph - N/A   Clear
12:35 PM 53.6 °F - 28.4 °F 38% 30.32 in 9.0 mi West 10.4 mph - N/A   Clear
12:55 PM 55.4 °F - 28.4 °F 36% 30.32 in 10.0 mi West 10.4 mph - N/A   Clear
1:15 PM 55.4 °F - 28.4 °F 36% 30.31 in 9.0 mi WNW 10.4 mph - N/A   Clear
1:35 PM 55.4 °F - 28.4 °F 36% 30.30 in 10.0 mi West 12.7 mph - N/A   Clear
1:55 PM 57.2 °F - 26.6 °F 31% 30.30 in 9.0 mi WNW 10.4 mph 16.1 mph N/A   Clear
2:15 PM 57.2 °F - 28.4 °F 33% 30.28 in 9.0 mi West 12.7 mph - N/A   Clear
2:35 PM 57.2 °F - 28.4 °F 33% 30.27 in 10.0 mi West 12.7 mph - N/A   Clear
2:55 PM 59.0 °F - 26.6 °F 29% 30.26 in 9.0 mi WNW 12.7 mph - N/A   Clear
3:15 PM 59.0 °F - 28.4 °F 31% 30.25 in 9.0 mi WNW 10.4 mph 16.1 mph N/A   Clear
3:35 PM 59.0 °F - 26.6 °F 29% 30.25 in 9.0 mi West 11.5 mph 16.1 mph N/A   Clear
3:55 PM 60.8 °F - 28.4 °F 29% 30.24 in 9.0 mi West 10.4 mph - N/A   Clear
4:15 PM 60.8 °F - 28.4 °F 29% 30.23 in 8.0 mi WNW 10.4 mph - N/A   Clear
4:35 PM 60.8 °F - 26.6 °F 27% 30.23 in 9.0 mi WNW 9.2 mph - N/A   Clear
4:55 PM 60.8 °F - 24.8 °F 25% 30.23 in 9.0 mi WNW 8.1 mph - N/A   Clear
5:15 PM 60.8 °F - 26.6 °F 27% 30.23 in 8.0 mi WNW 6.9 mph - N/A   Clear
5:35 PM 62.6 °F - 26.6 °F 26% 30.23 in 10.0 mi West 8.1 mph - N/A   Clear
5:55 PM 60.8 °F - 28.4 °F 29% 30.23 in 9.0 mi WNW 11.5 mph 16.1 mph N/A   Clear
6:15 PM 60.8 °F - 26.6 °F 27% 30.23 in 9.0 mi West 10.4 mph - N/A   Clear
6:35 PM 60.8 °F - 28.4 °F 29% 30.24 in 9.0 mi West 10.4 mph - N/A   Clear
6:55 PM 60.8 °F - 28.4 °F 29% 30.24 in 10.0 mi WNW 8.1 mph - N/A   Clear
7:15 PM 59.0 °F - 28.4 °F 31% 30.24 in 10.0 mi West 8.1 mph - N/A   Clear
7:35 PM 57.2 °F - 30.2 °F 36% 30.24 in 10.0 mi West 6.9 mph - N/A   Clear
7:55 PM 55.4 °F - 32.0 °F 41% 30.24 in 10.0 mi WNW 6.9 mph - N/A   Clear
8:15 PM 53.6 °F - 32.0 °F 44% 30.25 in 10.0 mi WNW 8.1 mph - N/A   Clear
8:35 PM 53.6 °F - 32.0 °F 44% 30.26 in 10.0 mi WNW 6.9 mph - N/A   Clear
8:55 PM 51.8 °F - 33.8 °F 50% 30.27 in 10.0 mi WNW 5.8 mph - N/A   Clear
9:15 PM 51.8 °F - 33.8 °F 50% 30.27 in 10.0 mi NW 8.1 mph - N/A   Clear
9:35 PM 51.8 °F - 33.8 °F 50% 30.27 in 10.0 mi NW 6.9 mph - N/A   Clear
9:55 PM 48.2 °F - 35.6 °F 62% 30.28 in 10.0 mi NW 6.9 mph - N/A   Clear
10:15 PM 48.2 °F - 35.6 °F 62% 30.28 in 10.0 mi NW 5.8 mph - N/A   Clear
10:35 PM 46.4 °F 44.3 °F 35.6 °F 66% 30.29 in 10.0 mi NW 4.6 mph - N/A   Clear
10:55 PM 46.4 °F 43.5 °F 35.6 °F 66% 30.29 in 10.0 mi NW 5.8 mph - N/A   Clear
11:15 PM 46.4 °F 42.9 °F 35.6 °F 66% 30.30 in 10.0 mi NW 6.9 mph - N/A   Clear
11:35 PM 46.4 °F 44.3 °F 35.6 °F 66% 30.30 in 10.0 mi NNW 4.6 mph - N/A   Clear
11:55 PM 46.4 °F 43.5 °F 35.6 °F 66% 30.30 in 10.0 mi NNW 5.8 mph - N/A   Clear